Home > Products > Valid Products > TAF

000
FTUS43 KABR 071132
TAFPIR
TAF
KPIR 071132Z 0712/0812 08006KT 4SM BR SKC
     FM071400 13008KT P6SM SKC
     FM071700 14013KT P6SM BKN150
     FM080200 13008KT P6SM OVC100=



000
FTUS43 KABR 071132
TAFATY
TAF
KATY 071132Z 0712/0812 VRB04KT P6SM SKC=



000
FTUS43 KABR 071132
TAFMBG
TAF
KMBG 071132Z 0712/0812 09007KT P6SM SKC
     FM071700 15012KT P6SM BKN060=



000
FTUS43 KABR 071132
TAFABR
TAF
KABR 071132Z 0712/0812 VRB05KT P6SM SKC
     FM072000 17010KT P6SM SKC=



000
FTUS43 KABR 070909 AAC
TAFMBG
TAF AMD
KMBG 070909Z 0709/0806 VRB05KT P6SM SKC
     FM071400 16009KT 6SM FU SKC=



000
FTUS43 KABR 070909 AAB
TAFABR
TAF AMD
KABR 070909Z 0709/0806 01005KT P6SM SKC
     FM071300 12003KT 6SM FU SKC
     FM071800 16006KT 6SM FU SKC=



000
FTUS43 KABR 070909 AAA
TAFATY
TAF AMD
KATY 070909Z 0709/0806 36005KT P6SM SKC
     FM071500 VRB06KT 6SM FU SKC
     FM072000 17006KT 6SM FU SKC=



000
FTUS43 KABR 070909 AAC
TAFMBG
TAF AMD
KMBG 070909Z 0709/0806 VRB05KT P6SM SKC
     FM071400 16009KT 6SM FU SKC=



000
FTUS43 KABR 070700 AAB
TAFMBG
TAF AMD
KMBG 070700Z 0707/0806 VRB05KT 5SM FU SKC
     FM071400 16009KT 6SM FU SKC=



000
FTUS43 KABR 070700 AAA
TAFPIR
TAF AMD
KPIR 070700Z 0707/0806 VRB05KT 4SM FU SKC
     FM071300 13008KT 6SM FU SKC=



000
FTUS43 KABR 070628 AAA
TAFMBG
TAF AMD
KMBG 070628Z 0706/0806 VRB05KT 6SM FU SKC
     FM071400 16009KT 6SM FU SKC=



000
FTUS43 KABR 070628 AAA
TAFMBG
TAF AMD
KMBG 070628Z 0706/0806 VRB05KT 6SM FU SKC
     FM071400 16009KT 6SM FU SKC=



000
FTUS43 KABR 070523
TAFMBG
TAF
KMBG 070523Z 0706/0806 VRB05KT 4SM FU SKC
     FM071400 16009KT 6SM FU SKC=



000
FTUS43 KABR 070523
TAFATY
TAF
KATY 070523Z 0706/0806 36005KT 6SM FU SKC
     FM070900 VRB04KT 2SM FU SKC
     FM071500 VRB06KT 6SM FU SKC
     FM072000 17006KT 6SM FU SKC=



000
FTUS43 KABR 070523
TAFABR
TAF
KABR 070523Z 0706/0806 01005KT 6SM FU SKC
     FM070900 01003KT 3SM FU SKC
     FM071300 12003KT 6SM FU SKC
     FM071800 16006KT 6SM FU SKC=



000
FTUS43 KABR 070523
TAFPIR
TAF
KPIR 070523Z 0706/0806 VRB04KT 6SM FU SKC
     FM070800 VRB04KT 3SM FU SKC
     FM071300 13008KT 6SM FU SKC=



000
FTUS43 KABR 070127 AAA
TAFMBG
TAF AMD
KMBG 070127Z 0701/0724 01007KT 5SM FU SKC
     FM070300 VRB05KT 4SM FU SKC
     FM071500 16009KT 6SM FU SKC=



000
FTUS43 KABR 070127 AAA
TAFMBG
TAF AMD
KMBG 070127Z 0701/0724 01007KT 5SM FU SKC
     FM070300 VRB05KT 4SM FU SKC
     FM071500 16009KT 6SM FU SKC=



000
FTUS43 KABR 062321
TAFABR
TAF
KABR 062321Z 0700/0724 36013KT 5SM FU FEW045
     FM070300 01005KT 6SM FU SKC
     FM070600 01003KT 3SM FU SKC
     FM071300 12003KT 6SM FU SKC=



000
FTUS43 KABR 062321
TAFMBG
TAF
KMBG 062321Z 0700/0724 01007KT 6SM FU BKN060
     FM070200 VRB05KT 4SM FU SKC
     FM071500 16009KT 6SM FU SKC=



000
FTUS43 KABR 062321
TAFATY
TAF
KATY 062321Z 0700/0724 36013KT P6SM FEW040
     FM070300 36005KT 6SM FU SKC
     FM070600 VRB04KT 2SM FU SKC
     FM071500 VRB06KT 6SM FU SKC=



000
FTUS43 KABR 062321
TAFPIR
TAF
KPIR 062321Z 0700/0724 35012KT P6SM SKC
     FM070300 VRB04KT 6SM FU SKC
     FM070800 VRB04KT 3SM FU SKC
     FM071300 13007KT 6SM FU SKC=



000
FTUS43 KABR 062321
TAFABR
TAF
KABR 062321Z 0700/0724 36013KT 5SM FU FEW045
     FM070300 01005KT 6SM FU SKC
     FM070600 01003KT 3SM FU SKC
     FM071300 12003KT 6SM FU SKC=



000
FTUS43 KABR 062209 AAB
TAFPIR
TAF AMD
KPIR 062209Z 0622/0718 35010KT P6SM SCT060
     FM070300 VRB04KT 6SM HZ SKC
     FM070800 VRB04KT 3SM BR SKC=



000
FTUS43 KABR 062208 AAA
TAFATY
TAF AMD
KATY 062208Z 0622/0718 35016G23KT 6SM HZ SCT040
     FM070300 36005KT 6SM HZ SKC
     FM070600 VRB04KT 2SM BR SKC=



000
FTUS43 KABR 062100 AAB
TAFABR
TAF AMD
KABR 062100Z 0621/0718 01014KT 4SM HZ FEW050
     FM070300 01005KT 6SM HZ SKC
     FM070600 01003KT 3SM BR SKC=



000
FTUS43 KABR 061915 AAA
TAFPIR
TAF AMD
KPIR 061915Z 0619/0718 35014G22KT P6SM SCT050
     FM070300 VRB04KT 6SM HZ SKC
     FM070800 VRB04KT 3SM BR SKC=



000
FTUS43 KABR 061915 AAA
TAFABR
TAF AMD
KABR 061915Z 0619/0718 35014G24KT 6SM HZ FEW040
     FM070300 01005KT 6SM HZ SKC
     FM070600 01003KT 3SM BR SKC=



000
FTUS43 KABR 061915 AAA
TAFABR
TAF AMD
KABR 061915Z 0619/0718 35014G24KT 6SM HZ FEW040
     FM070300 01005KT 6SM HZ SKC
     FM070600 01003KT 3SM BR SKC=



000
FTUS43 KABR 061737
TAFABR
TAF
KABR 061737Z 0618/0718 35014G24KT 5SM HZ FEW040
     FM070300 01005KT 6SM HZ SKC
     FM070600 01003KT 3SM BR SKC=



000
FTUS43 KABR 061737
TAFMBG
TAF
KMBG 061737Z 0618/0718 35015KT P6SM SCT050
     FM070500 VRB05KT 4SM HZ SKC
     FM071500 16009KT P6SM SKC=



000
FTUS43 KABR 061737
TAFPIR
TAF
KPIR 061737Z 0618/0718 35014G22KT 5SM HZ SCT050
     FM070300 VRB04KT 6SM HZ SKC
     FM070800 VRB04KT 3SM BR SKC=



000
FTUS43 KABR 061737
TAFATY
TAF
KATY 061737Z 0618/0718 35016G25KT 2SM HZ OVC035
     FM061900 36018G25KT 5SM HZ SCT040
     FM070300 36005KT 6SM HZ SKC
     FM070600 VRB04KT 2SM BR SKC=



000
FTUS43 KABR 061737
TAFPIR
TAF
KPIR 061737Z 0618/0718 35014G22KT 5SM HZ SCT050
     FM070300 VRB04KT 6SM HZ SKC
     FM070800 VRB04KT 3SM BR SKC=



000
FTUS43 KABR 061737
TAFMBG
TAF
KMBG 061737Z 0618/0718 35015KT P6SM SCT050
     FM070500 VRB05KT 4SM HZ SKC
     FM071500 16009KT P6SM SKC=



000
FTUS43 KABR 061737
TAFABR
TAF
KABR 061737Z 0618/0718 35014G24KT 5SM HZ FEW040
     FM070300 01005KT 6SM HZ SKC
     FM070600 01003KT 3SM BR SKC=



000
FTUS43 KABR 061737
TAFATY
TAF
KATY 061737Z 0618/0718 35016G25KT 2SM HZ OVC035
     FM061900 36018G25KT 5SM HZ SCT040
     FM070300 36005KT 6SM HZ SKC
     FM070600 VRB04KT 2SM BR SKC=



000
FTUS43 KABR 061622 AAB
TAFPIR
TAF AMD
KPIR 061622Z 0616/0712 35013KT 2SM HZ FEW035
     FM061800 35012G20KT 5SM HZ SCT050
     FM070300 VRB04KT 5SM HZ SKC=



000
FTUS43 KABR 061456 AAB
TAFATY
TAF AMD
KATY 061456Z 0615/0712 36012KT 1 1/2SM BR FEW010 BKN020
     FM061800 35016G25KT 2SM HZ OVC035
     FM070100 35005KT 3SM HZ SKC=



000
FTUS43 KABR 061456 AAB
TAFATY
TAF AMD
KATY 061456Z 0615/0712 36012KT 1 1/2SM BR FEW010 BKN020
     FM061800 35016G25KT 2SM HZ OVC035
     FM070100 35005KT 3SM HZ SKC=



000
FTUS43 KABR 061453 AAB
TAFABR
TAF AMD
KABR 061453Z 0615/0712 36013KT 1 1/2SM HZ BKN028
     FM061800 36014G24KT 2SM HZ BKN050
     FM070200 VRB04KT 3SM HZ SKC=



000
FTUS43 KABR 061449 AAA
TAFMBG
TAF AMD
KMBG 061449Z 0615/0712 35010G18KT 3SM HZ SCT050
     FM070100 VRB05KT 5SM HZ SKC=



000
FTUS43 KABR 061248 AAA
TAFPIR
TAF AMD
KPIR 061248Z 0613/0712 35013KT 1SM HZ OVC035
     FM061800 35014G22KT 4SM HZ SCT050
     FM070100 VRB04KT 3SM HZ SKC
     FM070500 VRB04KT P6SM SKC=



000
FTUS43 KABR 061248 AAA
TAFATY
TAF AMD
KATY 061248Z 0613/0712 36012KT 1SM BR OVC090
     FM061800 35016G25KT 2SM HZ OVC035
     FM070100 35005KT 2SM HZ SKC=



000
FTUS43 KABR 061135
TAFPIR
TAF
KPIR 061135Z 0612/0712 35013KT 2SM HZ OVC060
     FM061800 35014G22KT 4SM HZ SCT050
     FM070100 VRB04KT 3SM HZ SKC
     FM070500 VRB04KT P6SM SKC=



000
FTUS43 KABR 061135
TAFMBG
TAF
KMBG 061135Z 0612/0712 35006KT 1SM HZ OVC110
      TEMPO 0612/0616 3SM HZ
     FM061600 35014G22KT 2SM HZ SCT050
     FM070100 VRB05KT 5SM HZ SKC=



000
FTUS43 KABR 061135
TAFABR
TAF
KABR 061135Z 0612/0712 01010KT 1SM HZ BKN035
      TEMPO 0612/0615 3SM HZ
     FM061800 36014G24KT 2SM HZ BKN100
     FM070200 VRB04KT 2SM HZ SKC=



000
FTUS43 KABR 061135
TAFATY
TAF
KATY 061135Z 0612/0712 01014G20KT 2SM BR OVC010
     FM061800 35016G25KT 2SM HZ OVC035
     FM070100 35005KT 2SM HZ SKC=



000
FTUS43 KABR 061135
TAFABR
TAF
KABR 061135Z 0612/0712 01010KT 1SM HZ BKN035
      TEMPO 0612/0615 3SM HZ
     FM061800 36014G24KT 2SM HZ BKN100
     FM070200 VRB04KT 2SM HZ SKC=



000
FTUS43 KABR 061135
TAFATY
TAF
KATY 061135Z 0612/0712 01014G20KT 2SM BR OVC010
     FM061800 35016G25KT 2SM HZ OVC035
     FM070100 35005KT 2SM HZ SKC=



000
FTUS43 KABR 061135
TAFMBG
TAF
KMBG 061135Z 0612/0712 35006KT 1SM HZ OVC110
      TEMPO 0612/0616 3SM HZ
     FM061600 35014G22KT 2SM HZ SCT050
     FM070100 VRB05KT 5SM HZ SKC=



000
FTUS43 KABR 061135
TAFPIR
TAF
KPIR 061135Z 0612/0712 35013KT 2SM HZ OVC060
     FM061800 35014G22KT 4SM HZ SCT050
     FM070100 VRB04KT 3SM HZ SKC
     FM070500 VRB04KT P6SM SKC=



000
FTUS43 KABR 061103 AAC
TAFATY
TAF AMD
KATY 061103Z 0611/0706 02012KT 3SM BR BKN008 OVC080
     FM061200 36016KT 2SM BR OVC050
     FM061800 35016G25KT P6SM BKN250=



000
FTUS43 KABR 061103 AAC
TAFPIR
TAF AMD
KPIR 061103Z 0611/0706 34011KT 2SM BR OVC060
     FM061800 35014G22KT P6SM SCT050=



000
FTUS43 KABR 061103 AAC
TAFATY
TAF AMD
KATY 061103Z 0611/0706 02012KT 3SM BR BKN008 OVC080
     FM061200 36016KT 2SM BR OVC050
     FM061800 35016G25KT P6SM BKN250=



000
FTUS43 KABR 061103 AAC
TAFABR
TAF AMD
KABR 061103Z 0611/0706 01010KT 2SM HZ BKN050 OVC110
     FM061800 36014G24KT P6SM BKN100=



000
FTUS43 KABR 061103 AAC
TAFABR
TAF AMD
KABR 061103Z 0611/0706 01010KT 2SM HZ BKN050 OVC110
     FM061800 36014G24KT P6SM BKN100=



000
FTUS43 KABR 060913 AAB
TAFPIR
TAF AMD
KPIR 060913Z 0609/0706 34011KT 4SM BR OVC050
     FM061800 35014G22KT P6SM SCT050=



000
FTUS43 KABR 060912 AAB
TAFMBG
TAF AMD
KMBG 060912Z 0609/0706 35006KT 2SM BR OVC110
     FM061700 35014G22KT P6SM SCT050=



000
FTUS43 KABR 060853 AAC
TAFABR
TAF AMD
KABR 060853Z 0609/0706 01010KT 3SM HZ BKN050 OVC110
      TEMPO 0609/0610 2SM -RA
     FM061800 36014G24KT P6SM BKN100=



000
FTUS43 KABR 060821 AAB
TAFATY
TAF AMD
KATY 060821Z 0608/0706 02012KT P6SM VCSH OVC070
     FM061200 36016KT P6SM VCSH OVC050
     FM061800 35016G25KT P6SM BKN250=



000
FTUS43 KABR 060820 AAC
TAFABR
TAF AMD
KABR 060820Z 0608/0706 01010KT 3SM HZ BKN050 OVC110
     FM061800 36014G24KT P6SM BKN100=



000
FTUS43 KABR 060719 AAB
TAFABR
TAF AMD
KABR 060719Z 0607/0706 01010KT 5SM HZ BKN025 OVC110
     FM061800 36014G24KT P6SM BKN100=



000
FTUS43 KABR 060719 AAB
TAFABR
TAF AMD
KABR 060719Z 0607/0706 01010KT 5SM HZ BKN025 OVC110
     FM061800 36014G24KT P6SM BKN100=



000
FTUS43 KABR 060709 AAA
TAFPIR
TAF AMD
KPIR 060709Z 0607/0706 33010KT 4SM -RA BR BKN100
     FM060900 35013KT P6SM OVC050
     FM061800 35014G22KT P6SM SCT050=



000
FTUS43 KABR 060709 AAA
TAFATY
TAF AMD
KATY 060709Z 0607/0706 02015G21KT P6SM VCSH OVC070
     FM061200 36016KT P6SM VCSH OVC050
     FM061800 35016G25KT P6SM BKN250=



000
FTUS43 KABR 060708 AAA
TAFMBG
TAF AMD
KMBG 060708Z 0607/0706 35006KT 5SM -SHRA BR OVC110
      TEMPO 0607/0609 2SM BR
     FM060900 35008KT P6SM BKN050
     FM061700 35014G22KT P6SM SCT050=



000
FTUS43 KABR 060708 AAA
TAFMBG
TAF AMD
KMBG 060708Z 0607/0706 35006KT 5SM -SHRA BR OVC110
      TEMPO 0607/0609 2SM BR
     FM060900 35008KT P6SM BKN050
     FM061700 35014G22KT P6SM SCT050=



000
FTUS43 KABR 060528
TAFMBG
TAF
KMBG 060528Z 0606/0706 35006KT 5SM -SHRA BR OVC110
     FM060900 35008KT P6SM BKN050
     FM061700 35014G22KT P6SM SCT050=



000
FTUS43 KABR 060528
TAFABR
TAF
KABR 060528Z 0606/0706 01010KT P6SM -SHRA SCT100
     FM061800 36014G24KT P6SM BKN100=



000
FTUS43 KABR 060528
TAFATY
TAF
KATY 060528Z 0606/0706 01011KT P6SM VCSH SCT100
     FM061200 36016KT P6SM VCSH OVC050
     FM061800 35016G25KT P6SM BKN250=



000
FTUS43 KABR 060528
TAFPIR
TAF
KPIR 060528Z 0606/0706 36013KT 4SM -RA BR BKN100
     FM060900 35013KT P6SM OVC050
     FM061800 35014G22KT P6SM SCT050=



000
FTUS43 KABR 060528
TAFMBG
TAF
KMBG 060528Z 0606/0706 35006KT 5SM -SHRA BR OVC110
     FM060900 35008KT P6SM BKN050
     FM061700 35014G22KT P6SM SCT050=



000
FTUS43 KABR 060528
TAFATY
TAF
KATY 060528Z 0606/0706 01011KT P6SM VCSH SCT100
     FM061200 36016KT P6SM VCSH OVC050
     FM061800 35016G25KT P6SM BKN250=



000
FTUS43 KABR 060528
TAFABR
TAF
KABR 060528Z 0606/0706 01010KT P6SM -SHRA SCT100
     FM061800 36014G24KT P6SM BKN100=



000
FTUS43 KABR 060528
TAFPIR
TAF
KPIR 060528Z 0606/0706 36013KT 4SM -RA BR BKN100
     FM060900 35013KT P6SM OVC050
     FM061800 35014G22KT P6SM SCT050=



000
FTUS43 KABR 060442 AAG
TAFATY
TAF AMD
KATY 060442Z 0605/0624 01011KT P6SM VCSH SCT020 SCT030
     FM061200 36016KT P6SM VCSH OVC050
     FM061800 35016G25KT P6SM BKN250=



000
FTUS43 KABR 060424 AAF
TAFATY
TAF AMD
KATY 060424Z 0604/0624 35009KT P6SM BKN019 BKN120
     FM061200 36016KT P6SM VCSH OVC050
     FM061800 35016G25KT P6SM BKN250=



000
FTUS43 KABR 060424 AAF
TAFATY
TAF AMD
KATY 060424Z 0604/0624 35009KT P6SM BKN019 BKN120
     FM061200 36016KT P6SM VCSH OVC050
     FM061800 35016G25KT P6SM BKN250=



000
FTUS43 KABR 060417 AAC
TAFMBG
TAF AMD
KMBG 060417Z 0604/0624 36009KT 5SM -SHRA BR BKN060
     FM060900 35008KT P6SM BKN050
     FM061700 35014G22KT P6SM SCT050=



000
FTUS43 KABR 060417 AAC
TAFMBG
TAF AMD
KMBG 060417Z 0604/0624 36009KT 5SM -SHRA BR BKN060
     FM060900 35008KT P6SM BKN050
     FM061700 35014G22KT P6SM SCT050=



000
FTUS43 KABR 060416 AAC
TAFPIR
TAF AMD
KPIR 060416Z 0604/0624 01014KT 6SM -RA BR BKN070 OVC090
     FM060900 35013KT P6SM OVC050
     FM061800 35014G22KT P6SM SCT050=



000
FTUS43 KABR 060416 AAC
TAFPIR
TAF AMD
KPIR 060416Z 0604/0624 01014KT 6SM -RA BR BKN070 OVC090
     FM060900 35013KT P6SM OVC050
     FM061800 35014G22KT P6SM SCT050=



000
FTUS43 KABR 060415 AAE
TAFATY
TAF AMD
KATY 060415Z 0604/0624 36007KT P6SM -SHRA BKN050
     FM061200 36016KT P6SM VCSH OVC050
     FM061800 35016G25KT P6SM BKN250=



000
FTUS43 KABR 060415 AAE
TAFATY
TAF AMD
KATY 060415Z 0604/0624 36007KT P6SM -SHRA BKN050
     FM061200 36016KT P6SM VCSH OVC050
     FM061800 35016G25KT P6SM BKN250=



000
FTUS43 KABR 060414 AAF
TAFABR
TAF AMD
KABR 060414Z 0604/0624 01010KT P6SM -SHRA OVC050
     FM061200 36010KT P6SM OVC100
     FM061800 36014G24KT P6SM BKN100=



000
FTUS43 KABR 060259 AAE
TAFABR
TAF AMD
KABR 060259Z 0603/0624 01015KT P6SM VCSH OVC090
     FM060900 01009KT P6SM VCSH SCT050 BKN100
     FM061500 36013KT P6SM BKN250=



000
FTUS43 KABR 060258 AAD
TAFATY
TAF AMD
KATY 060258Z 0603/0624 11003KT P6SM -TSRA SCT035 BKN045CB BKN080
     FM060400 VRB06KT P6SM OVC045
     FM060600 01012KT P6SM -SHRA OVC040
     FM061500 36011KT P6SM BKN025=



000
FTUS43 KABR 060256 AAB
TAFPIR
TAF AMD
KPIR 060256Z 0603/0624 36018KT P6SM -RA BKN060 BKN100 OVC120
     FM060600 01017KT P6SM OVC100
     FM061500 35014KT P6SM BKN250=



000
FTUS43 KABR 060231 AAB
TAFMBG
TAF AMD
KMBG 060231Z 0603/0624 01011KT 2SM -RA BR SCT045 BKN060 BKN080
     FM060900 35008KT P6SM BKN050
     FM061600 35014KT P6SM SCT050=



000
FTUS43 KABR 060211 AAC
TAFATY
TAF AMD
KATY 060211Z 0602/0624 13005KT P6SM VCTS BKN070CB
      TEMPO 0602/0603 VRB20G40KT 2SM +TSRA OVC020CB
     FM060600 01012KT P6SM -SHRA OVC040
     FM061500 36011KT P6SM BKN025=



000
FTUS43 KABR 060211 AAC
TAFATY
TAF AMD
KATY 060211Z 0602/0624 13005KT P6SM VCTS BKN070CB
      TEMPO 0602/0603 VRB20G40KT 2SM +TSRA OVC020CB
     FM060600 01012KT P6SM -SHRA OVC040
     FM061500 36011KT P6SM BKN025=



000
FTUS43 KABR 060146 AAB
TAFATY
TAF AMD
KATY 060146Z 0602/0624 13005KT P6SM VCTS BKN070CB
      TEMPO 0602/0603 VRB20G40KT 2SM +TSRA OVC040CB
     FM060600 01012KT P6SM -SHRA OVC040
     FM061500 36011KT P6SM BKN025=



000
FTUS43 KABR 060101 AAA
TAFMBG
TAF AMD
KMBG 060101Z 0601/0624 35017KT 5SM BR VCSH FEW035 FEW110
     FM060300 35010KT P6SM BKN050
     FM060900 35008KT P6SM BKN050
     FM061600 35014KT P6SM SCT050=



000
FTUS43 KABR 060023 AAA
TAFATY
TAF AMD
KATY 060023Z 0600/0624 18007KT P6SM VCTS SCT050CB BKN200
     FM060600 01012KT P6SM -SHRA OVC040
     FM061500 36011KT P6SM BKN025=



000
FTUS43 KABR 060023 AAA
TAFATY
TAF AMD
KATY 060023Z 0600/0624 18007KT P6SM VCTS SCT050CB BKN200
     FM060600 01012KT P6SM -SHRA OVC040
     FM061500 36011KT P6SM BKN025=



000
FTUS43 KABR 060001 AAA
TAFPIR
TAF AMD
KPIR 060001Z 0600/0624 36020G28KT P6SM VCTS SCT040CB BKN100
     FM060300 35015KT P6SM VCSH BKN050
     FM060600 01017KT P6SM OVC100
     FM061500 35014KT P6SM BKN250=



000
FTUS43 KABR 060001 AAA
TAFPIR
TAF AMD
KPIR 060001Z 0600/0624 36020G28KT P6SM VCTS SCT040CB BKN100
     FM060300 35015KT P6SM VCSH BKN050
     FM060600 01017KT P6SM OVC100
     FM061500 35014KT P6SM BKN250=



000
FTUS43 KABR 052320
TAFABR
TAF
KABR 052320Z 0600/0624 36014KT P6SM SCT035 BKN040
     FM060200 36012KT P6SM VCTS SCT040CB BKN100
     FM060900 01009KT P6SM BKN100
     FM061500 36013KT P6SM BKN250=



000
FTUS43 KABR 052320
TAFPIR
TAF
KPIR 052320Z 0600/0624 36010KT P6SM VCTS SCT040CB BKN100
     FM060300 35015KT P6SM VCSH BKN050
     FM060600 01017KT P6SM OVC100
     FM061500 35014KT P6SM BKN250=



000
FTUS43 KABR 052320
TAFMBG
TAF
KMBG 052320Z 0600/0624 35012KT P6SM -RA VCTS BKN060CB BKN120
     FM060300 35010KT P6SM BKN050
     FM060900 35008KT P6SM BKN050
     FM061600 35014KT P6SM SCT050=



000
FTUS43 KABR 052320
TAFATY
TAF
KATY 052320Z 0600/0624 18009KT P6SM SCT040 BKN200
     FM060200 03013KT P6SM VCTS BKN040CB
     FM060600 01012KT P6SM -SHRA OVC040
     FM061500 36011KT P6SM BKN025=



000
FTUS43 KABR 052318 AAA
TAFPIR
TAF AMD
KPIR 052318Z 0523/0618 36010KT P6SM VCTS SCT040CB BKN100
     FM060300 35015KT P6SM VCSH BKN050
     FM060600 01017KT P6SM OVC100
     FM061500 35014KT P6SM BKN250=



000
FTUS43 KABR 052317 AAB
TAFATY
TAF AMD
KATY 052317Z 0523/0618 18009KT P6SM SCT040 BKN200
     FM060200 03013KT P6SM VCTS BKN040CB
     FM060600 01012KT P6SM -SHRA OVC040
     FM061500 36011KT P6SM BKN025=



000
FTUS43 KABR 052314 AAC
TAFABR
TAF AMD
KABR 052314Z 0523/0618 36014KT P6SM SCT035 BKN040
     FM060200 36012KT P6SM VCTS SCT040CB BKN100
     FM060900 01009KT P6SM BKN100
     FM061500 36013KT P6SM BKN250=



000
FTUS43 KABR 052314 AAC
TAFABR
TAF AMD
KABR 052314Z 0523/0618 36014KT P6SM SCT035 BKN040
     FM060200 36012KT P6SM VCTS SCT040CB BKN100
     FM060900 01009KT P6SM BKN100
     FM061500 36013KT P6SM BKN250=



000
FTUS43 KABR 052311 AAB
TAFMBG
TAF AMD
KMBG 052311Z 0523/0618 35012KT P6SM -RA VCTS BKN060CB BKN120
     FM060300 35010KT P6SM BKN050
     FM060900 35008KT P6SM BKN050
     FM061600 35014KT P6SM SCT050=



000
FTUS43 KABR 052311 AAB
TAFMBG
TAF AMD
KMBG 052311Z 0523/0618 35012KT P6SM -RA VCTS BKN060CB BKN120
     FM060300 35010KT P6SM BKN050
     FM060900 35008KT P6SM BKN050
     FM061600 35014KT P6SM SCT050=



000
FTUS43 KABR 052221 AAA
TAFATY
TAF AMD
KATY 052221Z 0522/0618 17005KT P6SM SCT050 BKN200
     FM060000 01008KT P6SM VCTS SCT050CB BKN080
     FM060400 36014KT P6SM OVC060
     FM060700 36011KT P6SM BKN060
     FM061600 36017KT P6SM SCT050=



000
FTUS43 KABR 052219 AAB
TAFABR
TAF AMD
KABR 052219Z 0522/0618 35009KT P6SM SCT050 BKN200
     FM060200 36014KT P6SM BKN080
     FM060600 36011KT P6SM SCT150
     FM061600 36016KT P6SM SCT050=



000
FTUS43 KABR 052219 AAB
TAFABR
TAF AMD
KABR 052219Z 0522/0618 35009KT P6SM SCT050 BKN200
     FM060200 36014KT P6SM BKN080
     FM060600 36011KT P6SM SCT150
     FM061600 36016KT P6SM SCT050=



000
FTUS43 KABR 052049 AAA
TAFMBG
TAF AMD
KMBG 052049Z 0521/0618 35013KT P6SM VCTS SCT040CB BKN050
     FM060300 35010KT P6SM BKN050
     FM060900 35008KT P6SM BKN050
     FM061600 35014KT P6SM SCT050=



000
FTUS43 KABR 052049 AAA
TAFMBG
TAF AMD
KMBG 052049Z 0521/0618 35013KT P6SM VCTS SCT040CB BKN050
     FM060300 35010KT P6SM BKN050
     FM060900 35008KT P6SM BKN050
     FM061600 35014KT P6SM SCT050=



000
FTUS43 KABR 052044 AAA
TAFABR
TAF AMD
KABR 052044Z 0521/0618 VRB06KT P6SM SCT100 BKN200
     FM052200 36015G23KT P6SM VCTS SCT050CB BKN100
     FM060200 36014KT P6SM BKN080
     FM060600 36011KT P6SM SCT150
     FM061600 36016KT P6SM SCT050=



000
FTUS43 KABR 052044 AAA
TAFABR
TAF AMD
KABR 052044Z 0521/0618 VRB06KT P6SM SCT100 BKN200
     FM052200 36015G23KT P6SM VCTS SCT050CB BKN100
     FM060200 36014KT P6SM BKN080
     FM060600 36011KT P6SM SCT150
     FM061600 36016KT P6SM SCT050=



000
FTUS43 KABR 051739
TAFATY
TAF
KATY 051739Z 0518/0618 21018G26KT P6SM SCT250
     FM052300 01008KT P6SM VCTS SCT050CB BKN080
     FM060400 36014KT P6SM OVC060
     FM060700 36011KT P6SM BKN060
     FM061600 36017KT P6SM SCT050=



000
FTUS43 KABR 051739
TAFPIR
TAF
KPIR 051739Z 0518/0618 06007KT P6SM SCT080 BKN150
     FM052100 04015KT P6SM VCTS SCT060CB BKN150
     FM060100 36018G28KT P6SM BKN060
     FM060500 35014KT P6SM BKN060=



000
FTUS43 KABR 051739
TAFABR
TAF
KABR 051739Z 0518/0618 21013KT P6SM SCT100 BKN200
     FM052100 36015G23KT P6SM VCTS SCT050CB BKN100
     FM060100 36014KT P6SM BKN080
     FM060500 36011KT P6SM SCT150
     FM061600 36016KT P6SM SCT050=



000
FTUS43 KABR 051739
TAFMBG
TAF
KMBG 051739Z 0518/0618 01019G25KT P6SM VCTS SCT010CB OVC014
     FM052100 36015KT P6SM SCT050 BKN100
     FM060900 35008KT P6SM BKN050
     FM061600 35014KT P6SM SCT050=



000
FTUS43 KABR 051131
TAFMBG
TAF
KMBG 051131Z 0512/0612 08011KT P6SM BKN200
     FM051800 13008KT P6SM FEW250
     FM052100 05010KT P6SM VCTS SCT050CB BKN100
     FM052300 01015KT P6SM VCTS OVC040CB
     FM060200 36013KT P6SM VCTS OVC015CB
     FM060900 35008KT P6SM OVC050=



000
FTUS43 KABR 051131
TAFMBG
TAF
KMBG 051131Z 0512/0612 08011KT P6SM BKN200
     FM051800 13008KT P6SM FEW250
     FM052100 05010KT P6SM VCTS SCT050CB BKN100
     FM052300 01015KT P6SM VCTS OVC040CB
     FM060200 36013KT P6SM VCTS OVC015CB
     FM060900 35008KT P6SM OVC050=



000
FTUS43 KABR 051131
TAFPIR
TAF
KPIR 051131Z 0512/0612 VRB03KT P6SM BKN200
     FM051600 15012KT P6SM SKC
     FM052200 04015G25KT P6SM VCTS SCT060CB BKN200
     FM060200 36018G28KT P6SM VCTS BKN015CB OVC060=



000
FTUS43 KABR 051131
TAFABR
TAF
KABR 051131Z 0512/0612 18015G22KT P6SM BKN250
     FM052300 08007KT P6SM VCTS SCT050CB OVC100
     FM060500 36015KT P6SM VCTS OVC025CB
      AMD NOT SKED=



000
FTUS43 KABR 051131
TAFATY
TAF
KATY 051131Z 0512/0612 19015G25KT P6SM VCSH FEW035 BKN110
     FM051600 18015G25KT P6SM SCT250
     FM052300 11010KT P6SM VCTS SCT050CB OVC080
     FM060400 01013KT P6SM VCTS BKN015CB OVC060=



000
FTUS43 KABR 051131
TAFATY
TAF
KATY 051131Z 0512/0612 19015G25KT P6SM VCSH FEW035 BKN110
     FM051600 18015G25KT P6SM SCT250
     FM052300 11010KT P6SM VCTS SCT050CB OVC080
     FM060400 01013KT P6SM VCTS BKN015CB OVC060=



000
FTUS43 KABR 051131
TAFPIR
TAF
KPIR 051131Z 0512/0612 VRB03KT P6SM BKN200
     FM051600 15012KT P6SM SKC
     FM052200 04015G25KT P6SM VCTS SCT060CB BKN200
     FM060200 36018G28KT P6SM VCTS BKN015CB OVC060=



000
FTUS43 KABR 051131
TAFABR
TAF
KABR 051131Z 0512/0612 18015G22KT P6SM BKN250
     FM052300 08007KT P6SM VCTS SCT050CB OVC100
     FM060500 36015KT P6SM VCTS OVC025CB
      AMD NOT SKED=



000
FTUS43 KABR 051037 AAB
TAFATY
TAF AMD
KATY 051037Z 0511/0606 20012KT P6SM VCTS SCT070CB BKN200
     FM051600 18015G25KT P6SM SCT250
     FM052300 11010KT P6SM VCTS SCT050CB OVC080=



000
FTUS43 KABR 051037 AAB
TAFATY
TAF AMD
KATY 051037Z 0511/0606 20012KT P6SM VCTS SCT070CB BKN200
     FM051600 18015G25KT P6SM SCT250
     FM052300 11010KT P6SM VCTS SCT050CB OVC080=



000
FTUS43 KABR 051037 AAC
TAFABR
TAF AMD
KABR 051037Z 0511/0606 17015G22KT P6SM BKN250
     FM051800 17012G20KT P6SM SCT250
     FM052300 08007KT P6SM VCTS SCT050CB OVC100
      AMD NOT SKED=



000
FTUS43 KABR 050927 AAA
TAFATY
TAF AMD
KATY 050927Z 0509/0606 15009KT P6SM VCTS SCT070CB BKN200
     FM051600 18015G25KT P6SM SCT250
     FM052300 11010KT P6SM VCTS SCT050CB OVC080=



000
FTUS43 KABR 050836 AAD
TAFABR
TAF AMD
KABR 050836Z 0509/0606 10011KT P6SM TS SCT070CB SCT110
     FM050910 17010KT P6SM BKN250
     FM051800 17012G20KT P6SM SCT250
     FM052300 08007KT P6SM VCTS SCT050CB OVC100=



000
FTUS43 KABR 050803 AAC
TAFABR
TAF AMD
KABR 050803Z 0508/0606 10011KT P6SM VCTS SCT070CB SCT110
      TEMPO 0508/0509 1SM -TSRA BKN030CB
     FM050900 17010KT P6SM BKN250
     FM051800 17012G20KT P6SM SCT250
     FM052300 08007KT P6SM VCTS SCT050CB OVC100=



000
FTUS43 KABR 050803 AAC
TAFABR
TAF AMD
KABR 050803Z 0508/0606 10011KT P6SM VCTS SCT070CB SCT110
      TEMPO 0508/0509 1SM -TSRA BKN030CB
     FM050900 17010KT P6SM BKN250
     FM051800 17012G20KT P6SM SCT250
     FM052300 08007KT P6SM VCTS SCT050CB OVC100=



000
FTUS43 KABR 050645 AAB
TAFABR
TAF AMD
KABR 050645Z 0507/0606 10011KT P6SM VCTS SCT070CB SCT110
      TEMPO 0507/0508 4SM -TSRA BKN030CB
     FM050900 17010KT P6SM BKN250
     FM051800 17012G20KT P6SM SCT250
     FM052300 08007KT P6SM VCTS SCT050CB OVC100=



000
FTUS43 KABR 050645 AAB
TAFABR
TAF AMD
KABR 050645Z 0507/0606 10011KT P6SM VCTS SCT070CB SCT110
      TEMPO 0507/0508 4SM -TSRA BKN030CB
     FM050900 17010KT P6SM BKN250
     FM051800 17012G20KT P6SM SCT250
     FM052300 08007KT P6SM VCTS SCT050CB OVC100=



000
FTUS43 KABR 050630 AAA
TAFABR
TAF AMD
KABR 050630Z 0507/0606 10011KT P6SM VCTS SCT070CB SCT110
     FM050900 17010KT P6SM BKN250
     FM051800 17012G20KT P6SM SCT250
     FM052300 08007KT P6SM VCTS SCT050CB OVC100=



000
FTUS43 KABR 050630 AAA
TAFABR
TAF AMD
KABR 050630Z 0507/0606 10011KT P6SM VCTS SCT070CB SCT110
     FM050900 17010KT P6SM BKN250
     FM051800 17012G20KT P6SM SCT250
     FM052300 08007KT P6SM VCTS SCT050CB OVC100=



000
FTUS43 KABR 050523
TAFABR
TAF
KABR 050523Z 0506/0606 15015G25KT P6SM VCTS SCT070CB SCT110
      TEMPO 0506/0507 VRB15G30KT 2SM TSRA OVC020CB
     FM050900 17010KT P6SM BKN250
     FM051800 17012G20KT P6SM SCT250
     FM052300 08007KT P6SM VCTS SCT050CB OVC100=



000
FTUS43 KABR 050523
TAFMBG
TAF
KMBG 050523Z 0506/0606 12011KT P6SM BKN200
     FM051800 13008KT P6SM FEW250
     FM052100 05010KT P6SM VCTS SCT050CB BKN100=



000
FTUS43 KABR 050523
TAFATY
TAF
KATY 050523Z 0506/0606 15009KT P6SM SCT100 BKN200
     FM051600 18015G25KT P6SM SCT250
     FM052300 11010KT P6SM VCTS SCT050CB OVC080=



000
FTUS43 KABR 050523
TAFPIR
TAF
KPIR 050523Z 0506/0606 23006KT P6SM BKN200
     FM051800 15009KT P6SM SKC
     FM052100 13011KT P6SM VCTS SCT060CB BKN200=



000
FTUS43 KABR 050523
TAFABR
TAF
KABR 050523Z 0506/0606 15015G25KT P6SM VCTS SCT070CB SCT110
      TEMPO 0506/0507 VRB15G30KT 2SM TSRA OVC020CB
     FM050900 17010KT P6SM BKN250
     FM051800 17012G20KT P6SM SCT250
     FM052300 08007KT P6SM VCTS SCT050CB OVC100=



000
FTUS43 KABR 050449 CCC
TAFABR
TAF COR
KABR 050449Z 0505/0524 15011KT P6SM VCTS SCT070CB SCT110
      TEMPO 0506/0507 VRB15G30KT 2SM TSRA OVC020CB
     FM050900 17010KT P6SM BKN250
     FM051800 17012G20KT P6SM SCT250
     FM052300 08007KT P6SM VCTS SCT050CB OVC100=



000
FTUS43 KABR 050448 AAC
TAFABR
TAF AMD
KABR 050448Z 0505/0524 15009KT P6SM VCTS SCT070CB SCT110
      TEMPO 0506/0507 VRB15G30KT 2SM TSRA OVC020CB
     FM050900 17010KT P6SM BKN250
     FM051800 17012G20KT P6SM SCT250
     FM052300 08007KT P6SM VCTS SCT050CB OVC100=



000
FTUS43 KABR 050433 AAB
TAFMBG
TAF AMD
KMBG 050433Z 0505/0524 11009KT P6SM BKN200
     FM051800 13008KT P6SM FEW250
     FM052100 05010KT P6SM VCTS SCT050CB BKN100=



000
FTUS43 KABR 050432 AAB
TAFPIR
TAF AMD
KPIR 050432Z 0505/0524 18013KT P6SM BKN200
     FM051800 15009KT P6SM SKC
     FM052100 13011KT P6SM VCTS SCT060CB BKN200=



000
FTUS43 KABR 050432 AAA
TAFATY
TAF AMD
KATY 050432Z 0505/0524 16007KT P6SM SCT100 BKN200
     FM051600 18015G25KT P6SM SCT250
     FM052300 11010KT P6SM VCTS SCT050CB OVC080=



000
FTUS43 KABR 050429 AAC
TAFABR
TAF AMD
KABR 050429Z 0504/0524 15009KT P6SM VCTS SCT050CB SCT110
      TEMPO 0504/0505 VRB15G30KT 2SM TSRA OVC050CB
     FM051800 17012G20KT P6SM SCT250
     FM052300 08007KT P6SM VCTS SCT050CB OVC100=



000
FTUS43 KABR 050416 CCB
TAFABR
TAF COR
KABR 050416Z 0504/0524 15009KT P6SM VCTS SCT050CB SCT110
      TEMPO 0504/0505 VRB15G30KT 2SM TSRA OVC050CB
     FM051800 18015KT P6SM FEW250 PROB30 0521/0524 P6SM TS BKN050CB=



000
FTUS43 KABR 050416 CCB
TAFABR
TAF COR
KABR 050416Z 0504/0524 15009KT P6SM VCTS SCT050CB SCT110
      TEMPO 0504/0505 VRB15G30KT 2SM TSRA OVC050CB
     FM051800 18015KT P6SM FEW250 PROB30 0521/0524 P6SM TS BKN050CB=



000
FTUS43 KABR 050356 CCA
TAFABR
TAF COR
KABR 050356Z 0504/0524 15009KT P6SM VCTS SCT050CB SCT110
      TEMPO 0504/0505 2SM TSRA OVC050CB
     FM051800 18015KT P6SM FEW250 PROB30 0521/0524 P6SM TS BKN050CB=



000
FTUS43 KABR 050343 AAB
TAFABR
TAF AMD
KABR 050343Z 0504/0524 15009KT P6SM VCTS SCT050CB SCT110
      TEMPO 0504/0505 -TSRA OVC050CB
     FM051800 18015KT P6SM FEW250 PROB30 0521/0524 P6SM TS BKN050CB=



000
FTUS43 KABR 050108 AAA
TAFPIR
TAF AMD
KPIR 050108Z 0501/0524 12012G18KT P6SM BKN080
     FM051800 15009KT P6SM SKC
     FM052100 13011KT P6SM SCT200=



000
FTUS43 KABR 050016 AAA
TAFMBG
TAF AMD
KMBG 050016Z 0500/0524 14015KT P6SM VCTS BKN070CB
     FM050300 13012KT P6SM BKN100
     FM051800 13008KT P6SM FEW250
     FM052100 05010KT P6SM VCTS SCT050CB BKN100=



000
FTUS43 KABR 042320
TAFATY
TAF
KATY 042320Z 0500/0524 18012KT P6SM FEW120 PROB30 0521/0524 P6SM TS
      BKN050CB=



000
FTUS43 KABR 042320
TAFMBG
TAF
KMBG 042320Z 0500/0524 15016KT P6SM SCT120 BKN200
     FM051800 13008KT P6SM FEW250
     FM052100 05010KT P6SM VCTS SCT050CB BKN100=



000
FTUS43 KABR 042320
TAFABR
TAF
KABR 042320Z 0500/0524 18014G22KT P6SM SCT120
     FM050300 17010KT P6SM BKN250
     FM051800 18015KT P6SM FEW250 PROB30 0521/0524 P6SM TS BKN050CB=



000
FTUS43 KABR 042320
TAFATY
TAF
KATY 042320Z 0500/0524 18012KT P6SM FEW120 PROB30 0521/0524 P6SM TS
      BKN050CB=



000
FTUS43 KABR 042320
TAFPIR
TAF
KPIR 042320Z 0500/0524 15014KT P6SM SCT200
     FM051800 15009KT P6SM SKC
     FM052100 13011KT P6SM SCT200=



000
FTUS43 KABR 042320
TAFABR
TAF
KABR 042320Z 0500/0524 18014G22KT P6SM SCT120
     FM050300 17010KT P6SM BKN250
     FM051800 18015KT P6SM FEW250 PROB30 0521/0524 P6SM TS BKN050CB=



000
FTUS43 KABR 042320
TAFPIR
TAF
KPIR 042320Z 0500/0524 15014KT P6SM SCT200
     FM051800 15009KT P6SM SKC
     FM052100 13011KT P6SM SCT200=



000
FTUS43 KABR 042320
TAFMBG
TAF
KMBG 042320Z 0500/0524 15016KT P6SM SCT120 BKN200
     FM051800 13008KT P6SM FEW250
     FM052100 05010KT P6SM VCTS SCT050CB BKN100=



000
FTUS43 KABR 041720
TAFATY
TAF
KATY 041720Z 0418/0518 18010G17KT P6SM SKC
     FM050300 18008KT P6SM SKC=



000
FTUS43 KABR 041720
TAFABR
TAF
KABR 041720Z 0418/0518 17012G18KT P6SM SKC
     FM050300 16008KT P6SM BKN250=



000
FTUS43 KABR 041720
TAFPIR
TAF
KPIR 041720Z 0418/0518 17013G19KT P6SM FEW120
     FM050300 15010KT P6SM BKN050=



000
FTUS43 KABR 041720
TAFMBG
TAF
KMBG 041720Z 0418/0518 15012G18KT P6SM SKC
     FM050300 15008KT P6SM BKN050=



000
FTUS43 KABR 041510 AAA
TAFMBG
TAF AMD
KMBG 041510Z 0415/0512 15012KT P6SM SKC
     FM041700 16013G18KT P6SM BKN250
     FM050300 12008KT P6SM SCT250=



000
FTUS43 KABR 041509 AAB
TAFATY
TAF AMD
KATY 041509Z 0415/0512 18007KT P6SM SKC
     FM041700 18013G18KT P6SM BKN250
     FM050300 18008KT P6SM SKC=



000
FTUS43 KABR 041509 AAB
TAFATY
TAF AMD
KATY 041509Z 0415/0512 18007KT P6SM SKC
     FM041700 18013G18KT P6SM BKN250
     FM050300 18008KT P6SM SKC=



000
FTUS43 KABR 041508 AAB
TAFABR
TAF AMD
KABR 041508Z 0415/0512 16009KT 6SM HZ SKC
     FM041700 17012G18KT P6SM BKN250
     FM050300 16008KT P6SM BKN250=



000
FTUS43 KABR 041508 AAB
TAFABR
TAF AMD
KABR 041508Z 0415/0512 16009KT 6SM HZ SKC
     FM041700 17012G18KT P6SM BKN250
     FM050300 16008KT P6SM BKN250=



    US Dept of Commerce
    National Oceanic and Atmospheric Administration
    National Weather Service
    1325 East West Highway
    Silver Spring, MD 20910
    Page Author: NWS Internet Services Team
Disclaimer
Information Quality
Credits
Glossary
Privacy Policy
Freedom of Information Act (FOIA)
About Us
Career Opportunities